Terminal Aerodrome Forecast
Issued by NWS

Home | Current Version | Previous Version | Text Only | Print | Product List | Glossary On
Versions: 1 2 3 4 5 6 7 8 9 10 11 12
000
FTPQ31 PGUM 232323
TAFGUM
TAF

TAF
PKMJ 232323Z 2400/2424 09009KT P6SM VCSH FEW016 SCT050
     FM240500 10011KT P6SM VCSH SCT015 SCT045 BKN120=

USA.gov is the U.S. government's official web portal to all federal, state and local government web resources and services.